createdAt,value
2019-05-03T00:02:26.114Z,54.11
2019-05-03T00:05:03.074Z,55.46
2019-05-03T00:07:34.888Z,55.89
2019-05-03T00:10:08.753Z,57.58
2019-05-03T00:12:42.174Z,58.14
2019-05-03T00:15:26.570Z,59.07
2019-05-03T00:17:59.361Z,59.80
2019-05-03T00:20:32.670Z,60.80
2019-05-03T00:23:05.024Z,62.30
2019-05-03T00:25:36.865Z,62.98
2019-05-03T00:28:08.600Z,55.73
2019-05-03T00:30:42.269Z,55.15
2019-05-03T00:33:13.850Z,56.90
2019-05-03T00:35:47.319Z,58.90
2019-05-03T00:38:18.965Z,60.14
2019-05-03T00:40:52.378Z,61.56
2019-05-03T00:43:24.101Z,62.37
2019-05-03T00:45:55.823Z,62.99
2019-05-03T00:48:27.552Z,60.14
2019-05-03T00:50:59.278Z,54.07
2019-05-03T00:53:31.748Z,53.40
2019-05-03T00:56:03.692Z,54.83
2019-05-03T00:58:37.170Z,55.77
2019-05-03T01:01:08.953Z,56.95
2019-05-03T01:03:41.849Z,58.78
2019-05-03T01:06:13.601Z,60.27
2019-05-03T01:08:45.305Z,61.37
2019-05-03T01:11:17.032Z,61.61
2019-05-03T01:13:51.993Z,63.01
2019-05-03T01:16:24.960Z,59.27
2019-05-03T01:18:56.672Z,53.36
2019-05-03T01:21:28.394Z,53.37
2019-05-03T01:24:01.672Z,55.71
2019-05-03T01:26:33.423Z,56.97
2019-05-03T01:29:05.523Z,57.47
2019-05-03T01:31:37.240Z,58.86
2019-05-03T01:34:12.523Z,59.35
2019-05-03T01:36:44.143Z,60.93
2019-05-03T01:39:15.944Z,62.04
2019-05-03T01:41:47.663Z,62.90
2019-05-03T01:44:19.509Z,64.50
2019-05-03T01:46:52.855Z,59.75
2019-05-03T01:49:29.037Z,53.53
2019-05-03T01:52:06.144Z,54.57
2019-05-03T01:54:39.029Z,55.62
2019-05-03T01:57:11.604Z,57.81
2019-05-03T01:59:43.540Z,57.42
2019-05-03T02:02:34.166Z,59.98
2019-05-03T02:05:19.755Z,60.69
2019-05-03T02:07:51.989Z,61.97
2019-05-03T02:10:23.762Z,63.97
2019-05-03T02:12:55.778Z,65.02
2019-05-03T02:15:27.599Z,56.70
2019-05-03T02:17:59.316Z,54.23
2019-05-03T02:20:32.406Z,55.77
2019-05-03T02:23:04.898Z,57.25
2019-05-03T02:25:36.779Z,58.71
2019-05-03T02:28:08.489Z,60.96
2019-05-03T02:30:43.672Z,61.36
2019-05-03T02:33:13.898Z,63.82
2019-05-03T02:35:45.618Z,63.09
2019-05-03T02:38:17.337Z,56.57
2019-05-03T02:40:49.155Z,53.94
2019-05-03T02:43:26.002Z,54.54
2019-05-03T02:46:02.300Z,55.32
2019-05-03T02:48:36.237Z,57.68
2019-05-03T02:51:07.210Z,58.83
2019-05-03T02:53:39.023Z,58.84
2019-05-03T02:56:18.287Z,59.62
2019-05-03T02:58:46.076Z,60.54
2019-05-03T03:01:18.539Z,61.73
2019-05-03T03:03:51.494Z,61.33
2019-05-03T03:06:26.825Z,63.13
2019-05-03T03:09:00.282Z,53.91
2019-05-03T03:11:37.481Z,53.68
2019-05-03T03:14:16.461Z,54.92
2019-05-03T03:16:50.892Z,56.65
2019-05-03T03:19:26.160Z,56.84
2019-05-03T03:22:01.268Z,58.46
2019-05-03T03:24:36.131Z,58.55
2019-05-03T03:27:12.228Z,59.58
2019-05-03T03:29:49.226Z,59.79
2019-05-03T03:32:29.779Z,61.28
2019-05-03T03:35:20.627Z,61.61
2019-05-03T03:37:51.421Z,63.76
2019-05-03T03:40:25.398Z,59.50
2019-05-03T03:43:00.590Z,52.16
2019-05-03T03:45:36.205Z,52.97
2019-05-03T03:48:11.036Z,54.92
2019-05-03T03:50:49.088Z,56.71
2019-05-03T03:53:26.163Z,57.09
2019-05-03T03:55:57.902Z,58.46
2019-05-03T03:58:30.494Z,58.86
2019-05-03T04:01:02.679Z,59.55
2019-05-03T04:03:36.234Z,60.04
2019-05-03T04:06:08.331Z,61.51
2019-05-03T04:08:45.130Z,61.94
2019-05-03T04:11:16.581Z,64.56
2019-05-03T04:13:48.809Z,56.88
2019-05-03T04:16:21.966Z,52.42
2019-05-03T04:18:58.408Z,53.02
2019-05-03T04:21:30.113Z,54.82
2019-05-03T04:24:02.204Z,55.94
2019-05-03T04:26:35.782Z,56.94
2019-05-03T04:29:07.693Z,57.81
2019-05-03T04:31:42.282Z,58.64
2019-05-03T04:34:16.215Z,59.72
2019-05-03T04:36:47.302Z,60.00
2019-05-03T04:39:20.242Z,62.52
2019-05-03T04:41:52.305Z,61.45
2019-05-03T04:44:26.054Z,56.77
2019-05-03T04:46:58.409Z,50.98
2019-05-03T04:49:30.427Z,52.26
2019-05-03T04:52:02.146Z,52.91
2019-05-03T04:54:41.293Z,53.96
2019-05-03T04:57:15.817Z,54.08
2019-05-03T04:59:46.356Z,55.19
2019-05-03T05:02:18.056Z,55.88
2019-05-03T05:04:49.898Z,56.61
2019-05-03T05:07:21.615Z,56.42
2019-05-03T05:09:56.244Z,57.37
2019-05-03T05:12:27.577Z,56.96
2019-05-03T05:14:59.305Z,56.67
2019-05-03T05:17:35.348Z,56.59
2019-05-03T05:20:09.350Z,56.60
2019-05-03T05:22:41.061Z,56.97
2019-05-03T05:25:14.887Z,57.13
2019-05-03T05:28:00.451Z,57.75
2019-05-03T05:30:32.751Z,56.94
2019-05-03T05:33:05.436Z,56.66
2019-05-03T05:35:37.375Z,55.46
2019-05-03T05:38:09.107Z,53.85
2019-05-03T05:40:40.844Z,51.49
2019-05-03T05:43:12.664Z,47.38
2019-05-03T05:45:44.917Z,45.73
2019-05-03T05:48:18.449Z,43.59
2019-05-03T05:50:50.040Z,42.72
2019-05-03T05:53:21.856Z,40.83
2019-05-03T05:56:11.412Z,38.02
2019-05-03T05:58:55.363Z,35.87
2019-05-03T06:01:29.418Z,35.39
2019-05-03T06:04:01.152Z,35.26
2019-05-03T06:06:34.889Z,35.27
2019-05-03T06:09:15.338Z,35.12
2019-05-03T06:11:51.692Z,35.66
2019-05-03T08:37:18.615Z,26.32
2019-05-03T08:39:44.908Z,26.66
2019-05-03T08:42:28.549Z,27.78
2019-05-03T08:44:57.543Z,28.21
2019-05-03T08:47:34.396Z,27.97
2019-05-03T08:50:08.066Z,29.11
2019-05-03T08:52:39.714Z,29.07
2019-05-03T08:55:15.990Z,30.12
2019-05-03T08:57:50.191Z,30.42
2019-05-03T09:00:32.936Z,31.30
2019-05-03T09:03:05.920Z,31.88
2019-05-03T09:05:41.922Z,31.39
2019-05-03T09:08:26.247Z,32.32
2019-05-03T09:11:02.198Z,32.57
2019-05-03T09:13:52.696Z,30.95
2019-05-03T09:16:28.976Z,30.92
2019-05-03T09:19:00.843Z,30.61
2019-05-03T09:21:34.609Z,28.64
2019-05-03T09:24:07.700Z,29.38
2019-05-03T09:26:39.238Z,29.86
2019-05-03T09:29:10.969Z,31.81
2019-05-03T09:31:44.629Z,30.49
2019-05-03T09:34:16.340Z,30.42
2019-05-03T09:36:48.103Z,31.59
2019-05-03T09:39:19.868Z,30.94
2019-05-03T09:41:51.595Z,31.07
2019-05-03T09:44:31.159Z,30.77
2019-05-03T09:47:05.612Z,30.34
2019-05-03T09:49:42.477Z,31.57
2019-05-03T09:52:18.339Z,30.98
2019-05-03T09:54:57.352Z,29.35
2019-05-03T09:57:30.218Z,30.20
2019-05-03T10:00:07.790Z,29.72
2019-05-03T10:02:40.666Z,30.98
2019-05-03T10:05:15.452Z,29.97
2019-05-03T10:07:48.015Z,31.86
2019-05-03T10:10:19.719Z,31.59
2019-05-03T10:12:58.849Z,29.74
2019-05-03T10:15:44.990Z,29.87
2019-05-03T10:18:22.418Z,29.18
2019-05-03T10:20:56.157Z,29.07
2019-05-03T10:23:35.975Z,29.40
2019-05-03T10:26:08.671Z,27.61
2019-05-03T10:28:41.592Z,28.81
2019-05-03T10:31:14.651Z,27.53
2019-05-03T10:33:51.201Z,27.97
2019-05-03T10:36:26.809Z,27.38
2019-05-03T10:38:58.468Z,28.26
2019-05-03T10:41:30.206Z,28.93
2019-05-03T10:44:02.032Z,27.84
2019-05-03T10:46:35.708Z,27.50
2019-05-03T10:49:07.340Z,29.12
2019-05-03T10:51:41.324Z,29.07
2019-05-03T10:54:14.651Z,29.07
2019-05-03T10:56:56.694Z,25.81
2019-05-03T10:59:28.540Z,25.81
2019-05-03T11:02:07.815Z,26.92
2019-05-03T11:04:39.460Z,26.49
2019-05-03T11:07:11.230Z,27.21
2019-05-03T11:09:49.698Z,27.98
2019-05-03T11:12:17.826Z,27.47
2019-05-03T11:14:49.896Z,27.20
2019-05-03T11:17:21.733Z,27.08
2019-05-03T11:19:54.736Z,28.20
2019-05-03T11:22:26.943Z,27.67
2019-05-03T11:24:58.692Z,27.46
2019-05-03T11:27:41.211Z,29.46
2019-05-03T11:30:15.737Z,28.68
2019-05-03T11:32:51.978Z,29.37
2019-05-03T11:35:25.163Z,29.86
2019-05-03T11:37:58.454Z,29.16
2019-05-03T11:40:30.128Z,29.70
2019-05-03T11:43:04.659Z,29.87
2019-05-03T11:45:36.450Z,30.74
2019-05-03T11:48:08.198Z,29.68
2019-05-03T11:50:39.968Z,29.97
2019-05-03T11:53:11.728Z,30.91
2019-05-03T11:55:46.254Z,29.60
2019-05-03T11:58:25.790Z,28.63
2019-05-03T12:01:15.325Z,28.37
2019-05-03T12:03:45.625Z,28.67
2019-05-03T12:06:17.251Z,27.76
2019-05-03T12:08:48.992Z,28.06
2019-05-03T12:11:20.762Z,28.68
2019-05-03T12:14:02.417Z,27.90
2019-05-03T12:17:07.768Z,29.02
2019-05-03T12:19:15.692Z,30.31
2019-05-03T12:21:37.580Z,30.50
2019-05-03T12:24:15.216Z,30.36
2019-05-03T12:26:47.008Z,28.30
2019-05-03T12:29:18.844Z,27.91
2019-05-03T12:31:50.495Z,26.92
2019-05-03T12:34:22.222Z,26.62
2019-05-03T12:36:53.959Z,26.62
2019-05-03T12:39:30.127Z,26.97
2019-05-03T12:42:02.366Z,27.38
2019-05-03T12:44:35.452Z,28.01
2019-05-03T12:47:07.141Z,27.74
2019-05-03T12:49:38.980Z,27.88
2019-05-03T12:52:11.239Z,27.84
2019-05-03T12:54:44.641Z,28.20
2019-05-03T12:57:16.400Z,28.67
2019-05-03T12:59:52.706Z,27.69
2019-05-03T13:02:41.215Z,27.61
2019-05-03T13:05:12.999Z,28.15
2019-05-03T13:07:46.183Z,29.57
2019-05-03T13:10:22.339Z,27.94
2019-05-03T13:12:53.353Z,28.02
2019-05-03T13:15:24.576Z,26.66
2019-05-03T13:17:56.298Z,27.81
2019-05-03T13:20:28.721Z,27.91
2019-05-03T13:23:00.797Z,28.63
2019-05-03T13:25:32.427Z,28.93
2019-05-03T13:28:05.491Z,26.92
2019-05-03T13:30:37.499Z,28.48
2019-05-03T13:33:09.270Z,28.28
2019-05-03T13:35:41.043Z,27.70
2019-05-03T13:38:12.947Z,28.46
2019-05-03T13:40:45.756Z,28.35
2019-05-03T13:43:17.362Z,28.62
2019-05-03T13:45:52.127Z,27.72
2019-05-03T13:48:26.268Z,26.07
2019-05-03T13:50:57.652Z,25.44
2019-05-03T13:53:29.486Z,26.33
2019-05-03T13:56:01.223Z,26.84
2019-05-03T13:58:32.935Z,26.37
2019-05-03T14:01:05.694Z,26.70
2019-05-03T14:03:38.592Z,25.62
2019-05-03T14:06:12.352Z,27.47
2019-05-03T14:08:45.481Z,27.67
2019-05-03T14:11:21.097Z,26.76
2019-05-03T14:14:01.837Z,26.43
2019-05-03T14:16:33.456Z,27.35
2019-05-03T14:19:09.899Z,27.01
2019-05-03T14:21:47.597Z,26.96
2019-05-03T14:24:19.431Z,27.33
2019-05-03T14:26:51.173Z,25.88
2019-05-03T14:29:25.223Z,26.13
2019-05-03T14:31:56.543Z,25.88
2019-05-03T14:34:28.283Z,26.53
2019-05-03T14:37:00.023Z,26.88
2019-05-03T14:39:31.767Z,27.76
2019-05-03T14:42:04.857Z,27.56
2019-05-03T14:44:37.443Z,27.76
2019-05-03T14:47:11.364Z,27.87
2019-05-03T14:49:47.973Z,28.74
2019-05-03T14:52:25.134Z,27.91
2019-05-03T14:55:06.473Z,28.06
2019-05-03T14:57:42.081Z,28.96
2019-05-03T15:00:18.969Z,28.16
2019-05-03T15:02:55.395Z,28.51
2019-05-03T15:05:31.702Z,27.86
2019-05-03T15:08:15.011Z,26.98
2019-05-03T15:10:47.711Z,27.05
2019-05-03T15:13:19.429Z,27.90
2019-05-03T15:15:51.180Z,26.99
2019-05-03T15:18:22.924Z,27.77
2019-05-03T15:20:55.546Z,27.27
2019-05-03T15:23:28.313Z,28.21
2019-05-03T15:25:59.951Z,28.25
2019-05-03T15:28:31.955Z,28.01
2019-05-03T15:31:09.607Z,27.14
2019-05-03T15:33:41.281Z,27.51
2019-05-03T15:36:15.467Z,27.99
2019-05-03T15:38:48.844Z,27.88
2019-05-03T15:41:25.134Z,28.74
2019-05-03T15:43:59.141Z,28.63
2019-05-03T15:46:36.720Z,28.12
2019-05-03T15:49:08.570Z,29.05
2019-05-03T15:51:40.303Z,28.51
2019-05-03T15:54:15.755Z,28.96
2019-05-03T15:56:49.268Z,28.40
2019-05-03T15:59:21.162Z,28.40
2019-05-03T16:01:52.911Z,29.00
2019-05-03T16:04:25.131Z,28.63
2019-05-03T16:06:57.300Z,28.41
2019-05-03T16:09:29.223Z,29.17
2019-05-03T16:12:00.854Z,28.73
2019-05-03T16:14:32.621Z,29.05
2019-05-03T16:17:04.532Z,29.24
2019-05-03T16:19:36.426Z,30.02
2019-05-03T16:22:08.172Z,30.09
2019-05-03T16:24:39.907Z,30.10
2019-05-03T16:27:19.004Z,30.51
2019-05-03T16:29:50.844Z,30.68
2019-05-03T16:32:22.587Z,30.80
2019-05-03T16:34:54.989Z,30.49
2019-05-03T16:37:26.753Z,31.33
2019-05-03T16:39:58.670Z,30.73
2019-05-03T16:42:30.532Z,30.15
2019-05-03T16:45:02.266Z,30.73
2019-05-03T16:47:35.449Z,31.19
2019-05-03T16:50:08.242Z,31.10
2019-05-03T16:52:40.069Z,31.67
2019-05-03T16:55:12.101Z,31.86
2019-05-03T16:57:44.319Z,31.56
2019-05-03T17:00:18.082Z,32.13
2019-05-03T17:02:49.835Z,32.42
2019-05-03T17:05:39.488Z,33.14
2019-05-03T17:08:15.620Z,33.09
2019-05-03T17:10:51.757Z,32.82
2019-05-03T17:13:25.161Z,33.37
2019-05-03T17:15:56.847Z,33.19
2019-05-03T17:18:28.693Z,33.29
2019-05-03T17:21:00.441Z,32.99
2019-05-03T17:23:32.167Z,33.81
2019-05-03T17:26:03.919Z,33.25
2019-05-03T17:28:35.650Z,33.42
2019-05-03T17:31:07.490Z,34.25
2019-05-03T17:33:50.469Z,34.26
2019-05-03T17:36:12.789Z,34.66
2019-05-03T17:38:45.608Z,34.86
2019-05-03T17:41:34.718Z,34.93
2019-05-03T17:44:09.797Z,35.18
2019-05-03T17:46:41.647Z,35.15
2019-05-03T17:49:14.728Z,35.83
2019-05-03T17:51:49.404Z,35.63
2019-05-03T17:54:27.241Z,36.40
2019-05-03T17:57:04.559Z,35.98
2019-05-03T17:59:41.580Z,36.55
2019-05-03T18:02:15.420Z,36.93
2019-05-03T18:05:05.354Z,36.85
2019-05-03T18:07:54.924Z,36.97
2019-05-03T18:10:28.147Z,37.57
2019-05-03T18:12:59.804Z,37.75
2019-05-03T18:15:31.459Z,37.87
2019-05-03T18:18:05.135Z,37.95
2019-05-03T18:20:38.003Z,37.92
2019-05-03T18:23:09.899Z,38.43
2019-05-03T18:25:41.612Z,38.65
2019-05-03T18:28:14.981Z,38.51
2019-05-03T18:30:46.761Z,38.95
2019-05-03T18:33:18.670Z,39.80
2019-05-03T18:35:50.457Z,39.49
2019-05-03T18:38:25.210Z,39.93
2019-05-03T18:40:59.336Z,41.15
2019-05-03T18:43:37.585Z,39.80
2019-05-03T18:46:28.063Z,39.93
2019-05-03T18:49:04.482Z,40.20
2019-05-03T18:51:37.516Z,40.40
2019-05-03T18:54:15.625Z,41.32
2019-05-03T18:56:48.787Z,41.68
2019-05-03T18:59:22.186Z,42.05
2019-05-03T19:01:56.292Z,42.47
2019-05-03T19:04:37.337Z,43.58
2019-05-03T19:07:10.451Z,42.50
2019-05-03T19:09:51.188Z,43.35
2019-05-03T19:12:28.889Z,42.82
2019-05-03T19:15:05.182Z,42.92
2019-05-03T19:17:54.712Z,42.91
2019-05-03T19:20:30.211Z,42.86
2019-05-03T19:23:02.224Z,42.70
2019-05-03T19:25:45.818Z,43.07
2019-05-03T19:28:08.215Z,43.43
2019-05-03T19:30:44.417Z,43.53
2019-05-03T19:33:16.305Z,43.96
2019-05-03T19:35:48.217Z,44.40
2019-05-03T19:38:19.850Z,45.44
2019-05-03T19:40:54.714Z,45.63
2019-05-03T19:43:27.028Z,46.13
2019-05-03T19:46:00.670Z,46.17
2019-05-03T19:48:34.787Z,46.93
2019-05-03T19:51:09.356Z,47.61
2019-05-03T19:53:47.419Z,47.70
2019-05-03T19:56:19.915Z,48.94
2019-05-03T19:58:55.343Z,48.68
2019-05-03T20:01:51.292Z,48.29
2019-05-03T20:04:33.086Z,48.32
2019-05-03T20:07:21.683Z,48.94
2019-05-03T20:09:54.477Z,48.61
2019-05-03T20:12:28.052Z,49.09
2019-05-03T20:15:01.426Z,48.85
2019-05-03T20:17:54.010Z,47.92
2019-05-03T20:20:10.165Z,48.41
2019-05-03T20:22:45.097Z,48.91
2019-05-03T20:25:17.673Z,50.15
2019-05-03T20:27:49.366Z,51.03
2019-05-03T20:30:23.151Z,50.88
2019-05-03T20:33:03.872Z,51.56
2019-05-03T20:35:45.233Z,51.07
2019-05-03T20:38:17.354Z,51.67
2019-05-03T20:40:49.423Z,51.97
2019-05-03T20:43:39.183Z,51.76
2019-05-03T20:46:10.799Z,51.83
2019-05-03T20:48:44.825Z,52.22
2019-05-03T20:51:16.997Z,52.14
2019-05-03T20:53:48.781Z,51.91
2019-05-03T20:56:21.876Z,52.09
2019-05-03T20:58:54.993Z,52.58
2019-05-03T21:01:45.934Z,52.56
2019-05-03T21:04:21.085Z,52.66
2019-05-03T21:06:55.181Z,53.08
2019-05-03T21:09:29.077Z,53.99
2019-05-03T21:12:01.780Z,54.11
2019-05-03T21:14:35.026Z,54.29
2019-05-03T21:17:20.182Z,53.94
2019-05-03T21:19:55.215Z,54.10
2019-05-03T21:22:29.980Z,54.45
2019-05-03T21:25:10.310Z,54.53
2019-05-03T21:27:44.829Z,54.40
2019-05-03T21:30:17.856Z,54.27
2019-05-03T21:33:05.275Z,54.34
2019-05-03T21:35:41.563Z,54.12
2019-05-03T21:38:10.580Z,54.09
2019-05-03T21:40:42.342Z,53.78
2019-05-03T21:43:15.246Z,53.98
2019-05-03T21:45:51.862Z,54.59
2019-05-03T21:48:28.185Z,54.45
2019-05-03T21:50:59.837Z,54.31
2019-05-03T21:53:31.582Z,54.87
2019-05-03T21:56:04.082Z,55.01
2019-05-03T21:58:35.708Z,55.48
2019-05-03T22:01:15.664Z,55.48
2019-05-03T22:03:44.752Z,57.01
2019-05-03T22:06:17.191Z,56.63
2019-05-03T22:08:48.907Z,56.94
2019-05-03T22:11:20.641Z,57.43
2019-05-03T22:13:54.253Z,57.69
2019-05-03T22:16:29.201Z,57.27
2019-05-03T22:19:00.823Z,56.48
2019-05-03T22:21:36.867Z,56.74
2019-05-03T22:24:20.128Z,57.04
2019-05-03T22:26:53.583Z,57.60
2019-05-03T22:29:25.964Z,57.81
2019-05-03T22:31:57.784Z,57.33
2019-05-03T22:34:29.555Z,57.78
2019-05-03T22:37:01.287Z,58.46
2019-05-03T22:39:33.009Z,58.48
2019-05-03T22:42:05.115Z,58.37
2019-05-03T22:44:36.862Z,58.20
2019-05-03T22:47:09.835Z,58.56
2019-05-03T22:49:41.722Z,57.51
2019-05-03T22:52:15.275Z,57.42
2019-05-03T22:54:48.319Z,57.34
2019-05-03T22:57:19.956Z,57.61
2019-05-03T22:59:51.694Z,57.85
2019-05-03T23:02:24.852Z,58.10
2019-05-03T23:04:57.109Z,58.34
2019-05-03T23:07:28.847Z,58.72
2019-05-03T23:10:00.577Z,58.55
2019-05-03T23:12:34.695Z,58.31
2019-05-03T23:15:11.387Z,58.51
2019-05-03T23:17:45.020Z,58.06
2019-05-03T23:20:25.448Z,58.02
2019-05-03T23:22:57.288Z,58.18
2019-05-03T23:25:30.720Z,58.68
2019-05-03T23:28:02.687Z,58.39
2019-05-03T23:30:36.625Z,58.11
2019-05-03T23:33:08.553Z,58.73
2019-05-03T23:35:40.288Z,58.63
2019-05-03T23:38:12.026Z,59.73
2019-05-03T23:40:44.760Z,59.39
2019-05-03T23:43:16.474Z,59.59
2019-05-03T23:45:49.374Z,59.73
2019-05-03T23:48:20.921Z,59.75
2019-05-03T23:50:52.751Z,59.31
2019-05-03T23:53:24.476Z,59.24
2019-05-03T23:55:58.912Z,58.96
2019-05-03T23:58:30.759Z,58.91
